sensor_id;sensor_type;location;lat;lon;timestamp;pressure;altitude;pressure_sealevel;temperature;humidity
71970;BME280;59838;52.152;5.436;2024-02-14T00:00:33;101331.69;;;7.18;100.00
71970;BME280;59838;52.152;5.436;2024-02-14T00:03:00;101324.59;;;7.20;100.00
71970;BME280;59838;52.152;5.436;2024-02-14T00:05:27;101328.78;;;7.21;100.00
71970;BME280;59838;52.152;5.436;2024-02-14T00:07:55;101324.44;;;7.21;100.00
71970;BME280;59838;52.152;5.436;2024-02-14T00:10:21;101322.66;;;7.22;100.00
71970;BME280;59838;52.152;5.436;2024-02-14T00:12:48;101330.13;;;7.25;100.00
71970;BME280;59838;52.152;5.436;2024-02-14T00:15:15;101328.34;;;7.25;100.00
71970;BME280;59838;52.152;5.436;2024-02-14T00:17:42;101319.63;;;7.26;100.00
71970;BME280;59838;52.152;5.436;2024-02-14T00:20:10;101322.06;;;7.28;100.00
71970;BME280;59838;52.152;5.436;2024-02-14T00:22:39;101323.72;;;7.29;100.00
71970;BME280;59838;52.152;5.436;2024-02-14T00:25:06;101325.97;;;7.32;100.00
71970;BME280;59838;52.152;5.436;2024-02-14T00:27:33;101313.72;;;7.34;100.00
71970;BME280;59838;52.152;5.436;2024-02-14T00:29:59;101316.16;;;7.36;100.00
71970;BME280;59838;52.152;5.436;2024-02-14T00:32:26;101313.44;;;7.37;100.00
71970;BME280;59838;52.152;5.436;2024-02-14T00:34:53;101316.03;;;7.37;100.00
71970;BME280;59838;52.152;5.436;2024-02-14T00:37:20;101304.69;;;7.38;100.00
71970;BME280;59838;52.152;5.436;2024-02-14T00:39:46;101302.63;;;7.42;100.00
71970;BME280;59838;52.152;5.436;2024-02-14T00:42:16;101300.72;;;7.44;100.00
71970;BME280;59838;52.152;5.436;2024-02-14T00:44:42;101301.38;;;7.46;100.00
71970;BME280;59838;52.152;5.436;2024-02-14T00:47:09;101301.22;;;7.47;100.00
71970;BME280;59838;52.152;5.436;2024-02-14T00:49:36;101293.31;;;7.49;100.00
71970;BME280;59838;52.152;5.436;2024-02-14T00:52:03;101298.34;;;7.50;100.00
71970;BME280;59838;52.152;5.436;2024-02-14T00:54:29;101296.41;;;7.53;100.00
71970;BME280;59838;52.152;5.436;2024-02-14T00:56:56;101297.06;;;7.55;100.00
71970;BME280;59838;52.152;5.436;2024-02-14T00:59:22;101296.75;;;7.58;100.00
71970;BME280;59838;52.152;5.436;2024-02-14T01:01:49;101296.47;;;7.61;100.00
71970;BME280;59838;52.152;5.436;2024-02-14T01:04:16;101295.22;;;7.65;100.00
71970;BME280;59838;52.152;5.436;2024-02-14T01:06:43;101288.25;;;7.65;100.00
71970;BME280;59838;52.152;5.436;2024-02-14T01:09:10;101288.09;;;7.67;100.00
71970;BME280;59838;52.152;5.436;2024-02-14T01:11:36;101290.38;;;7.70;100.00
71970;BME280;59838;52.152;5.436;2024-02-14T01:14:05;101292.69;;;7.73;100.00
71970;BME280;59838;52.152;5.436;2024-02-14T01:16:31;101284.13;;;7.73;100.00
71970;BME280;59838;52.152;5.436;2024-02-14T01:18:57;101284.63;;;7.76;100.00
71970;BME280;59838;52.152;5.436;2024-02-14T01:21:24;101292.22;;;7.78;100.00
71970;BME280;59838;52.152;5.436;2024-02-14T01:23:51;101277.50;;;7.78;100.00
71970;BME280;59838;52.152;5.436;2024-02-14T01:26:18;101281.72;;;7.79;100.00
71970;BME280;59838;52.152;5.436;2024-02-14T01:28:47;101280.44;;;7.83;100.00
71970;BME280;59838;52.152;5.436;2024-02-14T01:31:13;101280.13;;;7.86;100.00
71970;BME280;59838;52.152;5.436;2024-02-14T01:33:40;101276.44;;;7.89;100.00
71970;BME280;59838;52.152;5.436;2024-02-14T01:36:07;101278.88;;;7.91;100.00
71970;BME280;59838;52.152;5.436;2024-02-14T01:38:33;101276.28;;;7.91;100.00
71970;BME280;59838;52.152;5.436;2024-02-14T01:41:03;101279.53;;;7.93;100.00
71970;BME280;59838;52.152;5.436;2024-02-14T01:43:30;101282.63;;;7.96;100.00
71970;BME280;59838;52.152;5.436;2024-02-14T01:46:06;101273.75;;;7.99;100.00
71970;BME280;59838;52.152;5.436;2024-02-14T01:48:34;101279.72;;;7.99;100.00
71970;BME280;59838;52.152;5.436;2024-02-14T01:51:02;101279.56;;;8.01;100.00
71970;BME280;59838;52.152;5.436;2024-02-14T01:53:29;101278.63;;;8.02;100.00
71970;BME280;59838;52.152;5.436;2024-02-14T01:55:58;101280.06;;;8.04;100.00
71970;BME280;59838;52.152;5.436;2024-02-14T01:58:26;101267.78;;;8.06;100.00
71970;BME280;59838;52.152;5.436;2024-02-14T02:00:53;101288.31;;;8.08;100.00
71970;BME280;59838;52.152;5.436;2024-02-14T02:03:26;101283.81;;;8.10;100.00
71970;BME280;59838;52.152;5.436;2024-02-14T02:05:53;101279.28;;;8.12;100.00
71970;BME280;59838;52.152;5.436;2024-02-14T02:08:21;101282.38;;;8.16;100.00
71970;BME280;59838;52.152;5.436;2024-02-14T02:10:47;101273.50;;;8.18;100.00
71970;BME280;59838;52.152;5.436;2024-02-14T02:13:14;101273.50;;;8.18;100.00
71970;BME280;59838;52.152;5.436;2024-02-14T02:15:42;101281.91;;;8.20;100.00
71970;BME280;59838;52.152;5.436;2024-02-14T02:18:11;101280.81;;;8.23;100.00
71970;BME280;59838;52.152;5.436;2024-02-14T02:20:38;101279.66;;;8.26;100.00
71970;BME280;59838;52.152;5.436;2024-02-14T02:23:04;101285.50;;;8.28;100.00
71970;BME280;59838;52.152;5.436;2024-02-14T02:25:31;101285.34;;;8.29;100.00
71970;BME280;59838;52.152;5.436;2024-02-14T02:27:58;101286.97;;;8.30;100.00
71970;BME280;59838;52.152;5.436;2024-02-14T02:30:25;101285.03;;;8.32;100.00
71970;BME280;59838;52.152;5.436;2024-02-14T02:32:51;101294.59;;;8.32;100.00
71970;BME280;59838;52.152;5.436;2024-02-14T02:35:18;101284.06;;;8.33;100.00
71970;BME280;59838;52.152;5.436;2024-02-14T02:37:47;101295.06;;;8.35;100.00
71970;BME280;59838;52.152;5.436;2024-02-14T02:40:17;101294.75;;;8.38;100.00
71970;BME280;59838;52.152;5.436;2024-02-14T02:42:43;101294.59;;;8.40;100.00
71970;BME280;59838;52.152;5.436;2024-02-14T02:45:11;101290.22;;;8.40;100.00
71970;BME280;59838;52.152;5.436;2024-02-14T02:47:38;101295.25;;;8.42;100.00
71970;BME280;59838;52.152;5.436;2024-02-14T02:50:05;101290.91;;;8.42;100.00
71970;BME280;59838;52.152;5.436;2024-02-14T02:52:32;101294.97;;;8.45;100.00
71970;BME280;59838;52.152;5.436;2024-02-14T02:54:58;101295.81;;;8.46;100.00
71970;BME280;59838;52.152;5.436;2024-02-14T02:57:27;101294.00;;;8.46;100.00
71970;BME280;59838;52.152;5.436;2024-02-14T02:59:54;101295.66;;;8.47;100.00
71970;BME280;59838;52.152;5.436;2024-02-14T03:02:20;101293.72;;;8.49;100.00
71970;BME280;59838;52.152;5.436;2024-02-14T03:04:47;101294.50;;;8.50;100.00
71970;BME280;59838;52.152;5.436;2024-02-14T03:07:19;101297.09;;;8.50;100.00
71970;BME280;59838;52.152;5.436;2024-02-14T03:09:47;101300.34;;;8.52;100.00
71970;BME280;59838;52.152;5.436;2024-02-14T03:12:13;101309.72;;;8.53;100.00
71970;BME280;59838;52.152;5.436;2024-02-14T03:14:43;101295.84;;;8.54;100.00
71970;BME280;59838;52.152;5.436;2024-02-14T03:17:10;101292.25;;;8.55;100.00
71970;BME280;59838;52.152;5.436;2024-02-14T03:19:37;101303.28;;;8.57;100.00
71970;BME280;59838;52.152;5.436;2024-02-14T03:22:05;101301.50;;;8.57;100.00
71970;BME280;59838;52.152;5.436;2024-02-14T03:24:32;101301.50;;;8.57;100.00
71970;BME280;59838;52.152;5.436;2024-02-14T03:27:01;101308.13;;;8.60;100.00
71970;BME280;59838;52.152;5.436;2024-02-14T03:29:30;101308.81;;;8.62;100.00
71970;BME280;59838;52.152;5.436;2024-02-14T03:31:58;101311.22;;;8.64;100.00
71970;BME280;59838;52.152;5.436;2024-02-14T03:34:25;101317.84;;;8.66;100.00
71970;BME280;59838;52.152;5.436;2024-02-14T03:36:52;101310.91;;;8.67;100.00
71970;BME280;59838;52.152;5.436;2024-02-14T03:39:19;101315.94;;;8.68;100.00
71970;BME280;59838;52.152;5.436;2024-02-14T03:41:45;101310.59;;;8.70;100.00
71970;BME280;59838;52.152;5.436;2024-02-14T03:44:12;101308.50;;;8.73;100.00
71970;BME280;59838;52.152;5.436;2024-02-14T03:46:39;101323.75;;;8.76;100.00
71970;BME280;59838;52.152;5.436;2024-02-14T03:49:06;101318.41;;;8.78;100.00
71970;BME280;59838;52.152;5.436;2024-02-14T03:51:32;101325.81;;;8.81;100.00
71970;BME280;59838;52.152;5.436;2024-02-14T03:54:00;101323.22;;;8.81;100.00
71970;BME280;59838;52.152;5.436;2024-02-14T03:56:26;101322.13;;;8.84;100.00
71970;BME280;59838;52.152;5.436;2024-02-14T03:58:53;101326.97;;;8.87;100.00
71970;BME280;59838;52.152;5.436;2024-02-14T04:01:19;101324.88;;;8.90;100.00
71970;BME280;59838;52.152;5.436;2024-02-14T04:03:46;101324.88;;;8.90;100.00
71970;BME280;59838;52.152;5.436;2024-02-14T04:06:14;101327.31;;;8.92;100.00
71970;BME280;59838;52.152;5.436;2024-02-14T04:08:41;101329.91;;;8.92;100.00
71970;BME280;59838;52.152;5.436;2024-02-14T04:11:07;101333.31;;;8.92;100.00
71970;BME280;59838;52.152;5.436;2024-02-14T04:13:34;101330.41;;;8.95;100.00
71970;BME280;59838;52.152;5.436;2024-02-14T04:16:00;101336.88;;;9.00;100.00
71970;BME280;59838;52.152;5.436;2024-02-14T04:18:27;101324.91;;;8.99;100.00
71970;BME280;59838;52.152;5.436;2024-02-14T04:20:54;101339.16;;;9.03;100.00
71970;BME280;59838;52.152;5.436;2024-02-14T04:23:20;101337.53;;;9.02;100.00
71970;BME280;59838;52.152;5.436;2024-02-14T04:25:49;101346.63;;;9.06;100.00
71970;BME280;59838;52.152;5.436;2024-02-14T04:28:15;101350.81;;;9.07;100.00
71970;BME280;59838;52.152;5.436;2024-02-14T04:30:42;101354.25;;;9.07;100.00
71970;BME280;59838;52.152;5.436;2024-02-14T04:33:09;101351.66;;;9.07;100.00
71970;BME280;59838;52.152;5.436;2024-02-14T04:35:40;101360.22;;;9.08;100.00
71970;BME280;59838;52.152;5.436;2024-02-14T04:38:06;101356.69;;;9.09;100.00
71970;BME280;59838;52.152;5.436;2024-02-14T04:40:35;101367.03;;;9.09;100.00
71970;BME280;59838;52.152;5.436;2024-02-14T04:43:01;101367.69;;;9.11;100.00
71970;BME280;59838;52.152;5.436;2024-02-14T04:45:29;101367.53;;;9.12;100.00
71970;BME280;59838;52.152;5.436;2024-02-14T04:47:55;101364.13;;;9.12;100.00
71970;BME280;59838;52.152;5.436;2024-02-14T04:50:22;101365.75;;;9.13;100.00
71970;BME280;59838;52.152;5.436;2024-02-14T04:52:48;101371.72;;;9.13;100.00
71970;BME280;59838;52.152;5.436;2024-02-14T04:55:15;101366.38;;;9.15;100.00
71970;BME280;59838;52.152;5.436;2024-02-14T04:57:41;101365.44;;;9.16;100.00
71970;BME280;59838;52.152;5.436;2024-02-14T05:00:08;101371.25;;;9.18;100.00
71970;BME280;59838;52.152;5.436;2024-02-14T05:02:36;101373.84;;;9.18;100.00
71970;BME280;59838;52.152;5.436;2024-02-14T05:05:04;101375.47;;;9.19;100.00
71970;BME280;59838;52.152;5.436;2024-02-14T05:07:32;101375.47;;;9.19;100.00
71970;BME280;59838;52.152;5.436;2024-02-14T05:09:59;101381.47;;;9.20;100.00
71970;BME280;59838;52.152;5.436;2024-02-14T05:12:25;101374.34;;;9.22;100.00
71970;BME280;59838;52.152;5.436;2024-02-14T05:14:52;101383.59;;;9.24;100.00
71970;BME280;59838;52.152;5.436;2024-02-14T05:17:18;101387.66;;;9.27;100.00
71970;BME280;59838;52.152;5.436;2024-02-14T05:19:45;101395.44;;;9.27;100.00
71970;BME280;59838;52.152;5.436;2024-02-14T05:22:12;101395.44;;;9.27;100.00
71970;BME280;59838;52.152;5.436;2024-02-14T05:24:38;101401.25;;;9.29;100.00
71970;BME280;59838;52.152;5.436;2024-02-14T05:27:05;101396.88;;;9.29;100.00
71970;BME280;59838;52.152;5.436;2024-02-14T05:29:32;101403.69;;;9.30;100.00
71970;BME280;59838;52.152;5.436;2024-02-14T05:32:02;101406.13;;;9.32;100.00
71970;BME280;59838;52.152;5.436;2024-02-14T05:34:28;101402.72;;;9.31;100.00
71970;BME280;59838;52.152;5.436;2024-02-14T05:36:55;101401.75;;;9.32;100.00
71970;BME280;59838;52.152;5.436;2024-02-14T05:39:21;101400.94;;;9.32;100.00
71970;BME280;59838;52.152;5.436;2024-02-14T05:41:48;101410.34;;;9.33;100.00
71970;BME280;59838;52.152;5.436;2024-02-14T05:44:15;101407.75;;;9.33;100.00
71970;BME280;59838;52.152;5.436;2024-02-14T05:46:42;101409.53;;;9.32;100.00
71970;BME280;59838;52.152;5.436;2024-02-14T05:49:09;101404.00;;;9.36;100.00
71970;BME280;59838;52.152;5.436;2024-02-14T05:51:35;101403.22;;;9.35;100.00
71970;BME280;59838;52.152;5.436;2024-02-14T05:54:02;101411.78;;;9.36;100.00
71970;BME280;59838;52.152;5.436;2024-02-14T05:56:29;101405.81;;;9.35;100.00
71970;BME280;59838;52.152;5.436;2024-02-14T05:58:55;101403.84;;;9.37;100.00
71970;BME280;59838;52.152;5.436;2024-02-14T06:01:22;101409.84;;;9.38;100.00
71970;BME280;59838;52.152;5.436;2024-02-14T06:03:49;101409.84;;;9.38;100.00
71970;BME280;59838;52.152;5.436;2024-02-14T06:06:15;101415.03;;;9.38;100.00
71970;BME280;59838;52.152;5.436;2024-02-14T06:08:42;101422.81;;;9.38;100.00
71970;BME280;59838;52.152;5.436;2024-02-14T06:11:09;101411.47;;;9.39;100.00
71970;BME280;59838;52.152;5.436;2024-02-14T06:13:35;101423.47;;;9.40;100.00
71970;BME280;59838;52.152;5.436;2024-02-14T06:16:02;101427.03;;;9.39;100.00
71970;BME280;59838;52.152;5.436;2024-02-14T06:18:29;101427.03;;;9.39;100.00
71970;BME280;59838;52.152;5.436;2024-02-14T06:20:56;101437.25;;;9.40;100.00
71970;BME280;59838;52.152;5.436;2024-02-14T06:23:22;101435.47;;;9.41;100.00
71970;BME280;59838;52.152;5.436;2024-02-14T06:25:49;101439.69;;;9.42;100.00
71970;BME280;59838;52.152;5.436;2024-02-14T06:28:15;101431.91;;;9.42;100.00
71970;BME280;59838;52.152;5.436;2024-02-14T06:30:41;101436.94;;;9.43;100.00
71970;BME280;59838;52.152;5.436;2024-02-14T06:33:08;101444.72;;;9.43;100.00
71970;BME280;59838;52.152;5.436;2024-02-14T06:35:35;101448.13;;;9.44;100.00
71970;BME280;59838;52.152;5.436;2024-02-14T06:38:01;101453.31;;;9.44;100.00
71970;BME280;59838;52.152;5.436;2024-02-14T06:40:31;101453.94;;;9.46;100.00
71970;BME280;59838;52.152;5.436;2024-02-14T06:42:58;101460.91;;;9.45;100.00
71970;BME280;59838;52.152;5.436;2024-02-14T06:45:26;101455.75;;;9.45;100.00
71970;BME280;59838;52.152;5.436;2024-02-14T06:47:55;101462.56;;;9.46;100.00
71970;BME280;59838;52.152;5.436;2024-02-14T06:50:22;101466.09;;;9.45;100.00
71970;BME280;59838;52.152;5.436;2024-02-14T06:52:52;101459.13;;;9.46;100.00
71970;BME280;59838;52.152;5.436;2024-02-14T06:55:18;101460.75;;;9.47;100.00
71970;BME280;59838;52.152;5.436;2024-02-14T06:57:45;101460.75;;;9.47;100.00
71970;BME280;59838;52.152;5.436;2024-02-14T07:00:12;101458.97;;;9.47;100.00
71970;BME280;59838;52.152;5.436;2024-02-14T07:02:39;101460.59;;;9.48;100.00
71970;BME280;59838;52.152;5.436;2024-02-14T07:05:06;101465.63;;;9.50;100.00
71970;BME280;59838;52.152;5.436;2024-02-14T07:07:34;101463.84;;;9.50;100.00
71970;BME280;59838;52.152;5.436;2024-02-14T07:10:00;101465.63;;;9.50;100.00
71970;BME280;59838;52.152;5.436;2024-02-14T07:12:27;101478.59;;;9.50;100.00
71970;BME280;59838;52.152;5.436;2024-02-14T07:14:56;101479.25;;;9.52;100.00
71970;BME280;59838;52.152;5.436;2024-02-14T07:17:24;101484.28;;;9.54;100.00
71970;BME280;59838;52.152;5.436;2024-02-14T07:19:50;101479.91;;;9.54;100.00
71970;BME280;59838;52.152;5.436;2024-02-14T07:22:17;101489.31;;;9.55;100.00
71970;BME280;59838;52.152;5.436;2024-02-14T07:24:46;101490.94;;;9.56;100.00
71970;BME280;59838;52.152;5.436;2024-02-14T07:27:14;101480.56;;;9.56;100.00
71970;BME280;59838;52.152;5.436;2024-02-14T07:29:41;101487.19;;;9.59;100.00
71970;BME280;59838;52.152;5.436;2024-02-14T07:32:08;101486.41;;;9.58;100.00
71970;BME280;59838;52.152;5.436;2024-02-14T07:34:34;101484.44;;;9.60;100.00
71970;BME280;59838;52.152;5.436;2024-02-14T07:37:01;101485.28;;;9.61;100.00
71970;BME280;59838;52.152;5.436;2024-02-14T07:39:27;101486.09;;;9.61;100.00
71970;BME280;59838;52.152;5.436;2024-02-14T07:41:53;101480.91;;;9.61;100.00
71970;BME280;59838;52.152;5.436;2024-02-14T07:44:20;101483.16;;;9.64;100.00
71970;BME280;59838;52.152;5.436;2024-02-14T07:46:49;101485.75;;;9.64;100.00
71970;BME280;59838;52.152;5.436;2024-02-14T07:49:15;101496.78;;;9.66;100.00
71970;BME280;59838;52.152;5.436;2024-02-14T07:51:42;101494.03;;;9.68;100.00
71970;BME280;59838;52.152;5.436;2024-02-14T07:54:08;101487.22;;;9.67;100.00
71970;BME280;59838;52.152;5.436;2024-02-14T07:56:35;101493.88;;;9.69;100.00
71970;BME280;59838;52.152;5.436;2024-02-14T07:59:02;101492.91;;;9.70;100.00
71970;BME280;59838;52.152;5.436;2024-02-14T08:01:30;101500.38;;;9.74;100.00
71970;BME280;59838;52.152;5.436;2024-02-14T08:03:56;101499.56;;;9.73;100.00
71970;BME280;59838;52.152;5.436;2024-02-14T08:06:22;101502.97;;;9.74;100.00
71970;BME280;59838;52.152;5.436;2024-02-14T08:08:49;101501.03;;;9.76;100.00
71970;BME280;59838;52.152;5.436;2024-02-14T08:11:20;101504.41;;;9.76;100.00
71970;BME280;59838;52.152;5.436;2024-02-14T08:13:46;101509.44;;;9.78;100.00
71970;BME280;59838;52.152;5.436;2024-02-14T08:16:13;101507.50;;;9.80;100.00
71970;BME280;59838;52.152;5.436;2024-02-14T08:18:39;101515.13;;;9.81;100.00
71970;BME280;59838;52.152;5.436;2024-02-14T08:21:06;101515.13;;;9.81;100.00
71970;BME280;59838;52.152;5.436;2024-02-14T08:23:33;101510.78;;;9.82;100.00
71970;BME280;59838;52.152;5.436;2024-02-14T08:26:01;101519.19;;;9.84;100.00
71970;BME280;59838;52.152;5.436;2024-02-14T08:28:27;101517.25;;;9.86;100.00
71970;BME280;59838;52.152;5.436;2024-02-14T08:30:54;101514.50;;;9.87;100.00
71970;BME280;59838;52.152;5.436;2024-02-14T08:33:21;101517.91;;;9.88;100.00
71970;BME280;59838;52.152;5.436;2024-02-14T08:35:48;101513.53;;;9.88;100.00
71970;BME280;59838;52.152;5.436;2024-02-14T08:38:14;101518.72;;;9.88;100.00
71970;BME280;59838;52.152;5.436;2024-02-14T08:40:41;101517.72;;;9.89;100.00
71970;BME280;59838;52.152;5.436;2024-02-14T08:43:07;101524.41;;;9.92;100.00
71970;BME280;59838;52.152;5.436;2024-02-14T08:45:34;101529.44;;;9.94;100.00
71970;BME280;59838;52.152;5.436;2024-02-14T08:48:00;101524.88;;;9.96;100.00
71970;BME280;59838;52.152;5.436;2024-02-14T08:50:28;101529.09;;;9.97;100.00
71970;BME280;59838;52.152;5.436;2024-02-14T08:52:56;101528.16;;;9.98;100.00
71970;BME280;59838;52.152;5.436;2024-02-14T08:55:23;101524.41;;;10.00;100.00
71970;BME280;59838;52.152;5.436;2024-02-14T08:57:49;101525.03;;;10.02;100.00
71970;BME280;59838;52.152;5.436;2024-02-14T09:00:16;101528.31;;;10.04;100.00
71970;BME280;59838;52.152;5.436;2024-02-14T09:02:46;101531.53;;;10.06;100.00
71970;BME280;59838;52.152;5.436;2024-02-14T09:05:14;101530.59;;;10.07;100.00
71970;BME280;59838;52.152;5.436;2024-02-14T09:07:40;101528.78;;;10.08;100.00
71970;BME280;59838;52.152;5.436;2024-02-14T09:10:08;101523.44;;;10.10;100.00
71970;BME280;59838;52.152;5.436;2024-02-14T09:12:36;101531.88;;;10.12;100.00
71970;BME280;59838;52.152;5.436;2024-02-14T09:15:03;101534.13;;;10.15;100.00
71970;BME280;59838;52.152;5.436;2024-02-14T09:17:31;101541.94;;;10.15;100.00
71970;BME280;59838;52.152;5.436;2024-02-14T09:19:57;101544.38;;;10.16;100.00
71970;BME280;59838;52.152;5.436;2024-02-14T09:22:24;101544.38;;;10.16;100.00
71970;BME280;59838;52.152;5.436;2024-02-14T09:24:50;101551.84;;;10.19;100.00
71970;BME280;59838;52.152;5.436;2024-02-14T09:27:17;101557.03;;;10.19;100.00
71970;BME280;59838;52.152;5.436;2024-02-14T09:29:43;101564.66;;;10.21;100.00
71970;BME280;59838;52.152;5.436;2024-02-14T09:32:10;101560.91;;;10.23;100.00
71970;BME280;59838;52.152;5.436;2024-02-14T09:34:36;101563.19;;;10.27;100.00
71970;BME280;59838;52.152;5.436;2024-02-14T09:37:04;101560.59;;;10.27;100.00
71970;BME280;59838;52.152;5.436;2024-02-14T09:39:32;101556.22;;;10.27;100.00
71970;BME280;59838;52.152;5.436;2024-02-14T09:42:08;101555.06;;;10.30;100.00
71970;BME280;59838;52.152;5.436;2024-02-14T09:44:36;101558.31;;;10.32;100.00
71970;BME280;59838;52.152;5.436;2024-02-14T09:47:05;101559.00;;;10.34;100.00
71970;BME280;59838;52.152;5.436;2024-02-14T09:49:32;101552.97;;;10.33;100.00
71970;BME280;59838;52.152;5.436;2024-02-14T09:52:02;101552.03;;;10.34;100.00
71970;BME280;59838;52.152;5.436;2024-02-14T09:54:32;101554.78;;;10.33;100.00
71970;BME280;59838;52.152;5.436;2024-02-14T09:57:02;101559.31;;;10.31;100.00
71970;BME280;59838;52.152;5.436;2024-02-14T09:59:30;101553.31;;;10.30;100.00
71970;BME280;59838;52.152;5.436;2024-02-14T10:01:57;101557.84;;;10.28;100.00
71970;BME280;59838;52.152;5.436;2024-02-14T10:04:24;101558.81;;;10.27;100.00
71970;BME280;59838;52.152;5.436;2024-02-14T10:06:52;101566.63;;;10.27;100.00
71970;BME280;59838;52.152;5.436;2024-02-14T10:09:20;101569.06;;;10.29;100.00
71970;BME280;59838;52.152;5.436;2024-02-14T10:11:48;101572.28;;;10.31;100.00
71970;BME280;59838;52.152;5.436;2024-02-14T10:14:15;101570.50;;;10.31;100.00
71970;BME280;59838;52.152;5.436;2024-02-14T10:16:41;101571.16;;;10.33;100.00
71970;BME280;59838;52.152;5.436;2024-02-14T10:19:18;101568.41;;;10.35;100.00
71970;BME280;59838;52.152;5.436;2024-02-14T10:21:58;101582.88;;;10.37;100.00
71970;BME280;59838;52.152;5.436;2024-02-14T10:24:29;101572.47;;;10.37;100.00
71970;BME280;59838;52.152;5.436;2024-02-14T10:27:00;101570.69;;;10.38;100.00
71970;BME280;59838;52.152;5.436;2024-02-14T10:29:27;101576.38;;;10.41;100.00
71970;BME280;59838;52.152;5.436;2024-02-14T10:31:53;101578.63;;;10.45;100.00
71970;BME280;59838;52.152;5.436;2024-02-14T10:34:24;101579.13;;;10.48;100.00
71970;BME280;59838;52.152;5.436;2024-02-14T10:36:53;101575.38;;;10.51;100.00
71970;BME280;59838;52.152;5.436;2024-02-14T10:39:25;101583.19;;;10.51;100.00
71970;BME280;59838;52.152;5.436;2024-02-14T10:41:52;101581.41;;;10.51;100.00
71970;BME280;59838;52.152;5.436;2024-02-14T10:44:19;101586.44;;;10.53;100.00
71970;BME280;59838;52.152;5.436;2024-02-14T10:46:46;101585.44;;;10.54;100.00
71970;BME280;59838;52.152;5.436;2024-02-14T10:49:15;101588.69;;;10.56;100.00
71970;BME280;59838;52.152;5.436;2024-02-14T10:51:45;101580.75;;;10.57;100.00
71970;BME280;59838;52.152;5.436;2024-02-14T10:54:15;101582.22;;;10.60;100.00
71970;BME280;59838;52.152;5.436;2024-02-14T10:56:49;101581.88;;;10.63;100.00
71970;BME280;59838;52.152;5.436;2024-02-14T10:59:17;101587.56;;;10.67;100.00
71970;BME280;59838;52.152;5.436;2024-02-14T11:01:46;101586.59;;;10.68;100.00
71970;BME280;59838;52.152;5.436;2024-02-14T11:04:14;101588.88;;;10.71;100.00
71970;BME280;59838;52.152;5.436;2024-02-14T11:06:48;101581.88;;;10.71;100.00
71970;BME280;59838;52.152;5.436;2024-02-14T11:09:15;101590.31;;;10.73;100.00
71970;BME280;59838;52.152;5.436;2024-02-14T11:11:44;101580.38;;;10.77;100.00
71970;BME280;59838;52.152;5.436;2024-02-14T11:14:18;101572.09;;;10.82;100.00
71970;BME280;59838;52.152;5.436;2024-02-14T11:16:45;101578.59;;;10.86;100.00
71970;BME280;59838;52.152;5.436;2024-02-14T11:19:13;101577.59;;;10.87;100.00
71970;BME280;59838;52.152;5.436;2024-02-14T11:21:44;101568.03;;;10.87;100.00
71970;BME280;59838;52.152;5.436;2024-02-14T11:24:14;101577.44;;;10.88;100.00
71970;BME280;59838;52.152;5.436;2024-02-14T11:26:51;101572.06;;;10.90;100.00
71970;BME280;59838;52.152;5.436;2024-02-14T11:29:19;101564.94;;;10.92;100.00
71970;BME280;59838;52.152;5.436;2024-02-14T11:31:58;101558.75;;;10.93;100.00
71970;BME280;59838;52.152;5.436;2024-02-14T11:34:26;101567.53;;;10.92;100.00
71970;BME280;59838;52.152;5.436;2024-02-14T11:36:53;101564.94;;;10.92;100.00
71970;BME280;59838;52.152;5.436;2024-02-14T11:39:23;101566.88;;;10.90;100.00
71970;BME280;59838;52.152;5.436;2024-02-14T11:41:49;101563.47;;;10.89;100.00
71970;BME280;59838;52.152;5.436;2024-02-14T11:44:16;101562.66;;;10.89;100.00
71970;BME280;59838;52.152;5.436;2024-02-14T11:46:44;101559.41;;;10.87;100.00
71970;BME280;59838;52.152;5.436;2024-02-14T11:49:11;101569.00;;;10.86;100.00
71970;BME280;59838;52.152;5.436;2024-02-14T11:51:38;101562.00;;;10.87;100.00
71970;BME280;59838;52.152;5.436;2024-02-14T11:54:05;101562.00;;;10.87;100.00
71970;BME280;59838;52.152;5.436;2024-02-14T11:56:37;101559.25;;;10.88;100.00
71970;BME280;59838;52.152;5.436;2024-02-14T11:59:05;101558.28;;;10.89;100.00
71970;BME280;59838;52.152;5.436;2024-02-14T12:01:36;101549.97;;;10.94;100.00
71970;BME280;59838;52.152;5.436;2024-02-14T12:04:08;101553.22;;;10.96;100.00
71970;BME280;59838;52.152;5.436;2024-02-14T12:06:39;101557.44;;;10.97;100.00
71970;BME280;59838;52.152;5.436;2024-02-14T12:09:08;101553.69;;;11.00;100.00
71970;BME280;59838;52.152;5.436;2024-02-14T12:11:40;101549.16;;;11.02;100.00
71970;BME280;59838;52.152;5.436;2024-02-14T12:14:09;101548.97;;;11.03;100.00
71970;BME280;59838;52.152;5.436;2024-02-14T12:16:36;101547.03;;;11.05;100.00
71970;BME280;59838;52.152;5.436;2024-02-14T12:19:05;101546.69;;;11.08;100.00
71970;BME280;59838;52.152;5.436;2024-02-14T12:21:36;101552.69;;;11.09;100.00
71970;BME280;59838;52.152;5.436;2024-02-14T12:24:13;101546.69;;;11.08;100.00
71970;BME280;59838;52.152;5.436;2024-02-14T12:26:41;101550.88;;;11.09;100.00
71970;BME280;59838;52.152;5.436;2024-02-14T12:29:11;101552.53;;;11.10;100.00
71970;BME280;59838;52.152;5.436;2024-02-14T12:31:39;101555.75;;;11.12;100.00
71970;BME280;59838;52.152;5.436;2024-02-14T12:34:06;101555.59;;;11.14;100.00
71970;BME280;59838;52.152;5.436;2024-02-14T12:36:33;101545.53;;;11.11;100.00
71970;BME280;59838;52.152;5.436;2024-02-14T12:39:01;101541.31;;;11.10;100.00
71970;BME280;59838;52.152;5.436;2024-02-14T12:41:29;101542.28;;;11.09;100.00
71970;BME280;59838;52.152;5.436;2024-02-14T12:43:57;101535.28;;;11.09;100.00
71970;BME280;59838;52.152;5.436;2024-02-14T12:46:24;101535.94;;;11.11;100.00
71970;BME280;59838;52.152;5.436;2024-02-14T12:48:51;101543.41;;;11.14;100.00